Time;durP1;ratioP1;P1;durP2;ratioP2;P2;SDS_P1;SDS_P2;PMS_P1;PMS_P2;Temp;Humidity;BMP_temperature;BMP_pressure;BME280_temperature;BME280_humidity;BME280_pressure;Samples;Min_cycle;Max_cycle;Signal;HPM_P1;HPM_P2
2022/09/01 00:01:48;;;;;;;0.90;0.90;;;;;;;17.85;57.34;99225.81;5091130;28;40951;-76
2022/09/01 00:04:19;;;;;;;1.13;1.03;;;;;;;17.81;57.51;99221.69;5093829;28;43627;-80
2022/09/01 00:06:48;;;;;;;1.47;1.37;;;;;;;17.80;57.40;99216.47;5093154;28;43650;-79
2022/09/01 00:09:19;;;;;;;1.30;1.20;;;;;;;17.79;57.88;99220.13;5093973;28;42116;-76
2022/09/01 00:11:51;;;;;;;1.23;1.13;;;;;;;17.79;57.65;99220.13;5089887;28;40878;-77
2022/09/01 00:14:21;;;;;;;1.30;1.20;;;;;;;17.81;57.31;99228.88;5075695;28;40965;-75
2022/09/01 00:16:49;;;;;;;1.30;1.20;;;;;;;17.82;57.71;99225.22;5092661;28;44584;-76
2022/09/01 00:19:16;;;;;;;1.03;0.97;;;;;;;17.84;57.43;99223.25;5075279;28;42561;-78
2022/09/01 00:21:45;;;;;;;1.33;1.23;;;;;;;17.83;58.04;99222.41;5092789;28;41160;-78
2022/09/01 00:24:16;;;;;;;2.43;1.70;;;;;;;17.83;58.03;99221.53;5092524;28;41602;-76
2022/09/01 00:26:46;;;;;;;1.17;1.07;;;;;;;17.82;57.60;99225.22;5090604;28;42910;-77
2022/09/01 00:29:15;;;;;;;1.57;1.13;;;;;;;17.81;57.45;99220.81;5092453;28;41345;-79
2022/09/01 00:31:43;;;;;;;1.30;1.20;;;;;;;17.67;57.88;99211.31;5094041;28;40310;-80
2022/09/01 00:34:11;;;;;;;1.43;1.33;;;;;;;17.81;58.31;99224.34;5075475;28;43073;-80
2022/09/01 00:36:39;;;;;;;1.63;1.27;;;;;;;17.83;57.91;99224.22;5092048;28;42583;-77
2022/09/01 00:39:08;;;;;;;1.60;1.50;;;;;;;17.85;58.12;99227.63;5091603;28;42999;-77
2022/09/01 00:41:38;;;;;;;1.53;1.30;;;;;;;17.85;58.21;99222.28;5092524;28;40989;-77
2022/09/01 00:44:10;;;;;;;1.83;1.37;;;;;;;17.92;58.21;99220.78;5091809;28;42149;-75
2022/09/01 00:46:41;;;;;;;1.60;1.50;;;;;;;17.91;58.16;99219.06;5090551;28;42805;-75
2022/09/01 00:49:14;;;;;;;1.30;1.20;;;;;;;17.88;58.05;99222.84;5075242;28;42695;-77
2022/09/01 00:51:47;;;;;;;1.27;1.27;;;;;;;17.84;58.17;99213.38;5089399;28;40994;-76
2022/09/01 00:54:20;;;;;;;1.37;1.27;;;;;;;17.81;58.22;99218.16;5091816;28;41716;-77
2022/09/01 00:56:49;;;;;;;1.50;1.40;;;;;;;17.76;58.37;99220.41;5089149;28;42399;-79
2022/09/01 00:59:20;;;;;;;1.33;1.23;;;;;;;17.72;58.54;99214.44;5091851;28;42153;-79
2022/09/01 01:01:48;;;;;;;1.30;1.20;;;;;;;17.68;58.41;99217.53;5064384;28;39871;-77
2022/09/01 01:04:17;;;;;;;1.00;1.00;;;;;;;17.64;58.15;99213.41;5091421;28;41485;-76
2022/09/01 01:06:48;;;;;;;1.20;1.10;;;;;;;17.59;58.64;99214.63;5089967;28;42737;-77
2022/09/01 01:09:17;;;;;;;1.37;1.27;;;;;;;17.57;58.48;99210.38;5091067;28;43216;-75
2022/09/01 01:11:46;;;;;;;1.43;1.30;;;;;;;17.53;58.66;99215.16;5075174;28;39226;-73
2022/09/01 01:14:16;;;;;;;1.60;1.50;;;;;;;17.51;58.54;99210.91;5091736;28;42363;-75
2022/09/01 01:16:50;;;;;;;2.63;1.00;;;;;;;17.56;58.24;99214.88;5091744;28;42978;-76
2022/09/01 01:25:07;;;;;;;1.50;1.40;;;;;;;17.64;59.03;99210.72;5074579;28;40967;-75
2022/09/01 01:27:37;;;;;;;2.57;1.73;;;;;;;17.60;59.70;99208.28;5074647;28;44146;-79
2022/09/01 01:30:08;;;;;;;1.50;1.40;;;;;;;17.58;59.59;99206.72;5091897;28;42313;-75
2022/09/01 01:32:36;;;;;;;1.40;1.30;;;;;;;17.54;59.39;99205.28;5074633;28;38767;-78
2022/09/01 01:35:06;;;;;;;1.50;1.40;;;;;;;17.50;59.56;99204.69;5074479;28;40624;-76
2022/09/01 01:37:35;;;;;;;1.97;1.70;;;;;;;17.44;59.67;99191.81;5074619;28;41682;-75
2022/09/01 01:40:04;;;;;;;1.50;1.40;;;;;;;17.45;60.08;99201.56;5090782;28;42998;-76
2022/09/01 01:42:34;;;;;;;1.40;1.30;;;;;;;17.43;59.84;99198.16;5091198;28;40017;-79
2022/09/01 01:45:02;;;;;;;1.83;1.40;;;;;;;17.42;59.84;99201.84;5091813;28;41413;-75
2022/09/01 01:47:31;;;;;;;1.67;1.57;;;;;;;17.33;59.98;99185.69;5074451;28;42367;-80
2022/09/01 01:49:58;;;;;;;1.53;1.43;;;;;;;17.37;60.04;99201.38;5074628;28;43920;-78
2022/09/01 01:52:26;;;;;;;1.50;1.40;;;;;;;17.35;60.23;99194.44;5074226;28;39808;-76
2022/09/01 01:54:54;;;;;;;1.57;1.47;;;;;;;17.33;60.45;99201.75;5074392;28;43623;-77
2022/09/01 01:57:23;;;;;;;2.30;1.67;;;;;;;17.30;61.01;99192.16;5090995;28;42796;-80
2022/09/01 01:59:53;;;;;;;3.70;2.00;;;;;;;17.27;61.16;99189.75;5074288;28;42376;-80
2022/09/01 02:02:20;;;;;;;3.43;1.53;;;;;;;17.23;60.95;99185.63;5091434;28;40985;-77
2022/09/01 02:04:48;;;;;;;1.77;1.47;;;;;;;17.23;61.08;99196.31;5074425;28;40734;-76
2022/09/01 02:07:16;;;;;;;1.50;1.40;;;;;;;17.20;61.42;99188.53;5091035;28;42880;-74
2022/09/01 02:09:46;;;;;;;1.70;1.60;;;;;;;17.17;61.18;99183.47;5091203;28;42346;-76
2022/09/01 02:12:18;;;;;;;2.07;1.90;;;;;;;17.15;61.92;99188.09;5087933;28;39914;-79
2022/09/01 02:14:47;;;;;;;1.80;1.43;;;;;;;17.13;61.75;99184.69;5074268;28;40941;-80
2022/09/01 02:17:16;;;;;;;1.90;1.40;;;;;;;17.11;62.01;99181.31;5090241;28;44116;-77
2022/09/01 02:19:46;;;;;;;2.33;1.53;;;;;;;17.08;62.06;99177.03;5091015;28;42497;-75
2022/09/01 02:22:14;;;;;;;1.50;1.40;;;;;;;17.07;62.15;99185.19;5074041;28;40825;-78
2022/09/01 02:24:45;;;;;;;1.70;1.60;;;;;;;17.04;62.29;99178.31;5091072;28;41731;-76
2022/09/01 02:27:14;;;;;;;1.73;1.63;;;;;;;17.04;62.87;99172.94;5074218;28;43286;-77
2022/09/01 02:29:42;;;;;;;1.77;1.67;;;;;;;16.95;62.90;99167.50;5090937;28;42123;-78
2022/09/01 02:32:10;;;;;;;2.27;1.90;;;;;;;17.01;62.56;99173.19;5090957;28;39959;-74
2022/09/01 02:34:40;;;;;;;2.07;1.70;;;;;;;17.00;62.67;99170.66;5090911;28;42585;-74
2022/09/01 02:37:07;;;;;;;1.60;1.50;;;;;;;16.98;63.04;99169.91;5090608;28;43812;-77
2022/09/01 02:39:35;;;;;;;2.07;1.80;;;;;;;16.97;62.73;99173.56;5072899;28;42846;-77
2022/09/01 02:42:04;;;;;;;1.77;1.67;;;;;;;16.95;63.16;99164.81;5074064;28;38859;-77
2022/09/01 02:44:32;;;;;;;1.67;1.57;;;;;;;16.93;63.28;99166.81;5090680;28;42017;-78
2022/09/01 02:47:04;;;;;;;1.77;1.67;;;;;;;16.92;63.05;99159.75;5091026;28;42652;-77
2022/09/01 02:49:32;;;;;;;2.40;1.67;;;;;;;16.88;63.31;99159.16;5090278;28;42277;-75
2022/09/01 02:52:03;;;;;;;2.33;2.10;;;;;;;16.86;63.25;99159.28;5090606;28;40960;-79
2022/09/01 02:54:32;;;;;;;3.20;1.57;;;;;;;16.84;63.48;99157.69;5090846;28;41443;-78
2022/09/01 02:57:02;;;;;;;1.63;1.53;;;;;;;16.84;63.38;99157.69;5073638;28;41792;-76
2022/09/01 02:59:30;;;;;;;2.00;1.70;;;;;;;16.68;63.63;99131.41;5090580;28;42321;-77
2022/09/01 03:02:01;;;;;;;1.60;1.50;;;;;;;16.78;63.36;99153.72;5090956;28;39826;-76
2022/09/01 03:04:34;;;;;;;1.80;1.70;;;;;;;16.70;63.48;99145.47;5090648;28;41840;-78
2022/09/01 03:07:05;;;;;;;1.40;1.30;;;;;;;16.72;63.12;99148.88;5073616;28;41809;-75
2022/09/01 03:09:34;;;;;;;1.87;1.77;;;;;;;16.69;63.47;99154.47;5073432;28;44781;-76
2022/09/01 03:12:02;;;;;;;1.83;1.60;;;;;;;16.65;63.47;99147.69;5090544;28;41053;-78
2022/09/01 03:14:30;;;;;;;1.90;1.70;;;;;;;16.63;63.35;99140.75;5073075;28;40615;-79
2022/09/01 03:16:59;;;;;;;1.80;1.70;;;;;;;16.61;63.25;99148.03;5073531;28;42955;-76
2022/09/01 03:19:31;;;;;;;1.67;1.50;;;;;;;16.59;63.72;99148.16;5073084;28;41387;-77
2022/09/01 03:21:59;;;;;;;1.70;1.60;;;;;;;16.56;63.66;99153.78;5087372;28;40055;-78
2022/09/01 03:24:35;;;;;;;2.00;1.80;;;;;;;16.53;64.33;99154.03;5073017;28;43280;-75
2022/09/01 03:27:03;;;;;;;1.60;1.50;;;;;;;16.52;64.38;99152.31;5090422;28;42805;-74
2022/09/01 03:29:30;;;;;;;1.90;1.80;;;;;;;16.49;65.09;99148.06;5073511;28;41752;-77
2022/09/01 03:31:58;;;;;;;1.80;1.70;;;;;;;16.48;64.51;99161.56;5094006;28;39680;-76
2022/09/01 03:34:27;;;;;;;1.70;1.60;;;;;;;16.46;64.27;99158.16;5093524;28;41605;-77
2022/09/01 03:36:55;;;;;;;1.50;1.40;;;;;;;16.42;63.81;99159.41;5093215;28;43810;-75
2022/09/01 03:39:28;;;;;;;1.93;1.77;;;;;;;16.42;64.18;99162.06;5075686;28;42785;-75
2022/09/01 03:41:57;;;;;;;2.00;1.90;;;;;;;16.37;64.21;99159.75;5076373;28;40965;-77
2022/09/01 03:44:25;;;;;;;1.70;1.60;;;;;;;16.36;64.36;99168.75;5076536;28;40495;-76
2022/09/01 03:46:53;;;;;;;1.80;1.70;;;;;;;16.33;64.60;99157.44;5093415;28;43880;-75
2022/09/01 03:49:27;;;;;;;1.73;1.60;;;;;;;16.25;64.87;99154.56;5076168;28;42434;-77
2022/09/01 03:51:57;;;;;;;1.97;1.80;;;;;;;16.26;64.55;99148.25;5076658;28;40022;-76
2022/09/01 03:54:29;;;;;;;2.17;1.90;;;;;;;16.26;64.61;99164.28;5075981;28;44089;-75
2022/09/01 03:56:59;;;;;;;3.03;1.63;;;;;;;16.22;64.62;99161.00;5076636;28;42380;-78
2022/09/01 03:59:28;;;;;;;1.90;1.50;;;;;;;16.18;64.47;99154.22;5094367;28;42896;-74
2022/09/01 04:01:56;;;;;;;1.90;1.50;;;;;;;16.16;64.55;99157.03;5093111;28;40930;-74
2022/09/01 04:04:24;;;;;;;1.73;1.63;;;;;;;16.06;64.56;99150.72;5075785;28;43531;-74
2022/09/01 04:06:52;;;;;;;1.90;1.80;;;;;;;16.10;64.58;99157.50;5092979;28;42717;-80
2022/09/01 04:09:20;;;;;;;2.63;1.63;;;;;;;16.08;64.68;99162.09;5075542;28;41948;-76
2022/09/01 04:11:50;;;;;;;1.90;1.80;;;;;;;16.04;65.31;99158.00;5093163;28;41265;-78
2022/09/01 04:14:20;;;;;;;2.07;1.97;;;;;;;16.01;65.24;99158.25;5075770;28;42686;-77
2022/09/01 04:19:38;;;;;;;2.13;1.83;;;;;;;15.95;65.79;99157.91;5076027;28;41958;-78
2022/09/01 04:22:13;;;;;;;2.87;1.80;;;;;;;15.92;65.52;99153.63;5093097;28;40248;-73
2022/09/01 04:24:44;;;;;;;2.07;1.90;;;;;;;15.91;65.68;99151.94;5089889;28;41677;-75
2022/09/01 04:27:14;;;;;;;1.57;1.47;;;;;;;15.90;66.09;99150.25;5092781;28;41559;-74
2022/09/01 04:29:44;;;;;;;1.73;1.63;;;;;;;15.90;66.27;99147.56;5092878;28;41885;-78
2022/09/01 04:32:14;;;;;;;2.20;2.00;;;;;;;15.90;66.35;99152.91;5075615;28;41568;-77
2022/09/01 04:34:45;;;;;;;2.80;2.40;;;;;;;15.90;66.72;99152.91;5075723;28;42377;-79
2022/09/01 04:37:19;;;;;;;2.27;2.07;;;;;;;15.80;66.50;99142.13;5092568;28;42364;-78
2022/09/01 04:39:51;;;;;;;2.00;1.83;;;;;;;15.92;66.54;99164.31;5075405;28;41006;-77
2022/09/01 04:42:20;;;;;;;1.60;1.50;;;;;;;15.90;66.26;99154.72;5093156;28;39630;-78
2022/09/01 04:44:50;;;;;;;2.27;2.07;;;;;;;15.93;66.90;99166.03;5075211;28;42903;-76
2022/09/01 04:47:18;;;;;;;2.27;2.13;;;;;;;15.95;66.22;99172.06;5092353;28;42499;-76
2022/09/01 04:49:47;;;;;;;2.97;2.07;;;;;;;15.92;66.76;99169.66;5075572;28;42894;-74
2022/09/01 04:52:16;;;;;;;2.30;2.10;;;;;;;15.96;66.63;99181.78;5092089;28;39895;-76
2022/09/01 04:54:44;;;;;;;1.73;1.63;;;;;;;15.96;66.30;99176.44;5093309;28;42638;-75
2022/09/01 04:57:12;;;;;;;2.17;1.70;;;;;;;15.82;66.73;99151.81;5092272;28;42758;-75
2022/09/01 04:59:41;;;;;;;2.40;2.20;;;;;;;15.86;66.94;99154.09;5092481;28;43254;-76
2022/09/01 05:02:11;;;;;;;2.60;2.40;;;;;;;16.01;67.02;99171.59;5092270;28;41097;-79
2022/09/01 05:04:45;;;;;;;2.47;2.20;;;;;;;16.02;66.86;99175.97;5092504;28;42425;-79
2022/09/01 05:07:16;;;;;;;1.93;1.83;;;;;;;16.04;67.01;99173.19;5089018;28;43098;-79
2022/09/01 05:09:44;;;;;;;2.20;2.10;;;;;;;16.07;67.25;99171.09;5074929;28;42240;-77
2022/09/01 05:12:30;;;;;;;2.03;1.90;;;;;;;16.13;66.91;99177.78;5091931;28;39199;-76
2022/09/01 05:15:05;;;;;;;2.30;2.10;;;;;;;16.15;67.23;99176.69;5092254;28;42110;-75
2022/09/01 05:17:37;;;;;;;2.57;2.33;;;;;;;16.21;66.75;99185.16;5090149;28;42504;-75
2022/09/01 05:20:06;;;;;;;2.20;2.00;;;;;;;16.25;67.05;99179.47;5074564;28;41210;-79
2022/09/01 05:22:34;;;;;;;3.27;2.20;;;;;;;16.31;67.35;99180.81;5074605;28;39729;-78
2022/09/01 05:25:12;;;;;;;3.17;2.23;;;;;;;16.38;66.89;99187.34;5074535;28;42545;-77
2022/09/01 05:27:48;;;;;;;2.57;2.37;;;;;;;16.45;66.82;99188.53;5074757;28;43308;-77
2022/09/01 05:30:17;;;;;;;2.13;1.83;;;;;;;16.57;66.25;99187.53;5075036;28;42426;-77
2022/09/01 05:32:47;;;;;;;2.10;1.93;;;;;;;16.67;66.01;99196.56;5074388;28;39064;-78
2022/09/01 05:35:16;;;;;;;1.97;1.77;;;;;;;16.64;65.18;99172.72;5093162;28;41203;-78
2022/09/01 05:37:44;;;;;;;2.40;2.20;;;;;;;16.98;64.85;99202.03;5074574;28;44481;-79
2022/09/01 05:40:14;;;;;;;3.33;2.60;;;;;;;17.13;64.64;99206.09;5091562;28;42931;-80
2022/09/01 05:42:43;;;;;;;2.23;2.03;;;;;;;17.23;64.10;99196.31;5074827;28;42143;-80
2022/09/01 05:45:13;;;;;;;2.83;2.20;;;;;;;17.26;63.99;99196.06;5091642;28;41775;-80
2022/09/01 05:47:41;;;;;;;3.50;2.17;;;;;;;17.34;64.27;99206.97;5091304;28;42803;-80
2022/09/01 05:50:14;;;;;;;1.87;1.77;;;;;;;17.39;63.92;99207.44;5074442;28;41140;-79
2022/09/01 05:52:44;;;;;;;2.33;2.13;;;;;;;17.51;63.94;99201.03;5073248;28;39919;-79
2022/09/01 05:55:14;;;;;;;2.40;2.20;;;;;;;17.59;64.13;99203.91;5074215;28;40881;-79
2022/09/01 05:57:46;;;;;;;2.10;1.90;;;;;;;17.65;63.70;99201.72;5073973;28;42019;-80
2022/09/01 06:00:16;;;;;;;4.20;2.30;;;;;;;17.80;63.61;99211.13;5092042;28;43167;-80
2022/09/01 06:02:50;;;;;;;3.13;2.03;;;;;;;17.97;63.09;99212.31;5074285;28;41449;-79
2022/09/01 06:05:25;;;;;;;2.63;2.43;;;;;;;18.23;62.43;99214.41;5088561;28;42618;-81
2022/09/01 06:07:56;;;;;;;2.10;2.00;;;;;;;18.40;62.29;99214.75;5089349;28;42741;-79
2022/09/01 06:10:24;;;;;;;2.33;2.10;;;;;;;18.38;62.16;99211.34;5091470;28;43855;-80
2022/09/01 06:12:52;;;;;;;2.43;2.10;;;;;;;18.36;62.08;99218.69;5091486;28;41245;-80
2022/09/01 06:15:20;;;;;;;2.27;1.90;;;;;;;18.38;62.24;99217.56;5074484;28;41436;-79
2022/09/01 06:17:51;;;;;;;2.13;2.03;;;;;;;18.44;62.13;99221.53;5088943;28;42880;-79
2022/09/01 06:20:21;;;;;;;1.80;1.70;;;;;;;18.55;61.77;99229.47;5091351;28;43165;-80
2022/09/01 06:22:52;;;;;;;3.43;2.10;;;;;;;18.57;61.61;99211.41;5091255;28;40006;-80
2022/09/01 06:25:21;;;;;;;2.20;1.97;;;;;;;18.83;61.01;99228.72;5074224;28;43027;-79
2022/09/01 06:27:51;;;;;;;4.07;2.27;;;;;;;18.97;60.85;99230.16;5090993;28;43795;-78
2022/09/01 06:30:25;;;;;;;2.10;2.00;;;;;;;19.22;60.18;99232.28;5091224;28;43712;-78
2022/09/01 06:33:08;;;;;;;3.47;2.30;;;;;;;19.31;59.38;99217.16;5073674;28;41370;-79
2022/09/01 06:35:37;;;;;;;2.20;2.00;;;;;;;19.56;58.99;99231.84;5073764;28;40667;-79
2022/09/01 06:38:07;;;;;;;2.63;2.03;;;;;;;19.58;58.62;99217.28;5073340;28;44057;-79
2022/09/01 06:40:41;;;;;;;2.60;2.40;;;;;;;19.76;58.50;99232.69;5073887;28;43397;-80
2022/09/01 06:43:11;;;;;;;2.50;2.30;;;;;;;19.86;58.43;99230.81;5090806;28;40316;-78
2022/09/01 06:45:43;;;;;;;2.83;2.40;;;;;;;19.93;58.18;99226.53;5090820;28;42128;-80
2022/09/01 06:48:15;;;;;;;3.33;2.50;;;;;;;19.99;57.89;99234.03;5088830;28;43828;-80
2022/09/01 06:50:44;;;;;;;3.77;2.40;;;;;;;20.11;57.82;99237.41;5074254;28;40973;-78
2022/09/01 06:53:17;;;;;;;2.00;1.80;;;;;;;20.15;57.90;99238.81;5073686;28;39757;-79
2022/09/01 06:55:49;;;;;;;2.30;2.20;;;;;;;20.04;57.66;99221.00;5087912;28;42837;-81
2022/09/01 06:58:17;;;;;;;3.50;2.60;;;;;;;20.15;57.55;99236.97;5073517;28;41587;-80
2022/09/01 07:00:50;;;;;;;2.10;1.97;;;;;;;20.22;57.45;99246.13;5073804;28;41267;-79
2022/09/01 07:03:18;;;;;;;2.37;2.27;;;;;;;20.32;56.94;99246.94;5091840;28;40816;-78
2022/09/01 07:06:00;;;;;;;8.13;2.67;;;;;;;20.50;56.71;99254.25;5077337;28;40548;-78
2022/09/01 07:08:49;;;;;;;3.10;2.30;;;;;;;20.78;56.41;99253.25;5094280;28;43770;-79
2022/09/01 07:11:31;;;;;;;2.43;2.20;;;;;;;21.06;55.56;99252.22;5076986;28;40914;-79
2022/09/01 07:14:02;;;;;;;2.13;1.90;;;;;;;21.27;54.71;99253.78;5093430;28;41146;-80
2022/09/01 07:16:39;;;;;;;2.13;2.00;;;;;;;21.46;54.50;99240.16;5090887;28;42676;-81
2022/09/01 07:19:13;;;;;;;2.20;2.00;;;;;;;21.67;53.90;99253.28;5093299;28;42781;-78
2022/09/01 07:21:55;;;;;;;1.90;1.80;;;;;;;21.74;53.30;99255.22;5076799;28;44560;-79
2022/09/01 07:24:25;;;;;;;2.30;2.10;;;;;;;21.85;53.33;99260.34;5076703;28;40121;-79
2022/09/01 07:27:17;;;;;;;1.77;1.67;;;;;;;22.08;54.22;99255.31;5064014;28;41700;-79
2022/09/01 07:29:45;;;;;;;1.97;1.87;;;;;;;22.34;52.81;99270.66;5076576;28;43147;-79
2022/09/01 07:32:16;;;;;;;2.70;2.20;;;;;;;22.53;51.68;99279.34;5076391;28;43487;-80
2022/09/01 07:34:45;;;;;;;3.00;2.30;;;;;;;22.65;50.86;99284.44;5090542;28;40094;-79
2022/09/01 07:37:13;;;;;;;1.90;1.80;;;;;;;23.00;51.32;99273.47;5076396;28;40764;-81
2022/09/01 07:39:43;;;;;;;2.03;1.83;;;;;;;23.28;50.30;99282.16;5076031;28;44711;-79
2022/09/01 07:42:28;;;;;;;2.50;1.50;;;;;;;23.59;49.12;99290.50;5076429;28;40867;-81
2022/09/01 07:45:26;;;;;;;2.03;1.60;;;;;;;24.14;47.64;99295.19;5089431;28;40793;-81
2022/09/01 07:48:05;;;;;;;2.00;1.80;;;;;;;24.66;45.54;99303.72;5090488;28;42524;-79
2022/09/01 07:50:43;;;;;;;3.17;1.80;;;;;;;24.86;46.17;99310.41;5076516;28;41577;-79
2022/09/01 07:53:11;;;;;;;3.23;2.10;;;;;;;24.76;44.78;99265.59;5091208;28;42056;-79
2022/09/01 07:55:42;;;;;;;2.60;1.77;;;;;;;25.37;43.94;99322.53;5093176;28;40926;-80
2022/09/01 07:58:10;;;;;;;2.07;1.90;;;;;;;25.95;41.82;99329.31;5092977;28;42709;-82
2022/09/01 08:00:40;;;;;;;1.90;1.80;;;;;;;26.29;40.94;99322.56;5076153;28;43415;-79
2022/09/01 08:03:09;;;;;;;2.07;1.80;;;;;;;26.68;41.37;99317.72;5075856;28;44716;-81
2022/09/01 08:05:38;;;;;;;1.60;1.50;;;;;;;27.24;39.43;99349.84;5076108;28;39627;-78
2022/09/01 08:08:06;;;;;;;1.73;1.60;;;;;;;27.66;39.40;99339.06;5075811;28;42764;-82
2022/09/01 08:10:34;;;;;;;3.93;1.67;;;;;;;28.10;37.78;99357.91;5092984;28;44263;-78
2022/09/01 08:13:03;;;;;;;2.00;1.50;;;;;;;28.71;37.32;99349.16;5092677;28;42293;-81
2022/09/01 08:15:31;;;;;;;1.93;1.50;;;;;;;29.00;36.97;99356.28;5075637;28;39217;-78
2022/09/01 08:17:59;;;;;;;3.00;1.53;;;;;;;29.07;36.50;99357.16;5075713;28;40671;-83
2022/09/01 08:20:33;;;;;;;1.63;1.53;;;;;;;29.27;35.65;99366.28;5090066;28;42717;-78
2022/09/01 08:23:25;;;;;;;1.60;1.50;;;;;;;29.80;34.30;99366.47;5091031;28;43000;-83
2022/09/01 08:25:53;;;;;;;1.67;1.57;;;;;;;30.48;33.76;99367.19;5075444;28;37945;-78
2022/09/01 08:28:23;;;;;;;1.63;1.50;;;;;;;31.02;31.42;99384.16;5092861;28;42013;-81
2022/09/01 08:30:51;;;;;;;2.10;1.93;;;;;;;31.92;31.45;99378.75;5092817;28;42926;-80
2022/09/01 08:33:20;;;;;;;2.17;2.07;;;;;;;33.27;29.31;99382.63;5092708;28;41957;-79
2022/09/01 08:35:49;;;;;;;1.67;1.57;;;;;;;34.44;27.99;99395.78;5075896;28;39091;-80
2022/09/01 08:38:18;;;;;;;1.80;1.70;;;;;;;35.41;26.24;99407.16;5091677;28;42751;-82
2022/09/01 08:40:53;;;;;;;1.70;1.60;;;;;;;35.94;25.72;99409.63;5075391;28;42035;-82
2022/09/01 08:43:34;;;;;;;1.87;1.60;;;;;;;35.82;26.44;99392.31;5075114;28;41211;-81
2022/09/01 08:46:10;;;;;;;2.10;1.90;;;;;;;35.31;25.30;99406.09;5075740;28;39681;-79
2022/09/01 08:48:41;;;;;;;1.65;1.55;;;;;;;34.87;26.54;99400.13;5075714;28;40605;-79
2022/09/01 08:51:19;;;;;;;1.70;1.60;;;;;;;34.77;26.92;99388.88;5075358;28;43056;-81
2022/09/01 08:54:05;;;;;;;1.48;1.38;;;;;;;34.65;26.01;99386.09;5075245;28;43381;-80
2022/09/01 08:56:36;;;;;;;1.57;1.47;;;;;;;35.53;25.74;99396.09;5075458;28;39106;-78
2022/09/01 08:59:08;;;;;;;1.85;1.48;;;;;;;36.43;24.31;99409.97;5092265;28;40839;-82
2022/09/01 09:02:00;;;;;;;2.60;1.50;;;;;;;36.88;23.89;99415.41;5075540;28;41714;-82
2022/09/01 09:04:46;;;;;;;1.65;1.55;;;;;;;36.51;24.14;99406.78;5092204;28;42270;-80
2022/09/01 09:07:23;;;;;;;2.05;1.80;;;;;;;36.68;24.32;99407.63;5091952;28;41863;-84
2022/09/01 09:09:58;;;;;;;1.98;1.45;;;;;;;36.77;23.88;99410.00;5091901;28;41200;-78
2022/09/01 09:12:51;;;;;;;1.70;1.60;;;;;;;36.38;23.95;99411.81;5091533;28;41826;-76
2022/09/01 09:15:30;;;;;;;1.17;1.10;;;;;;;35.96;24.49;99404.72;5091841;28;42291;-83
2022/09/01 09:18:07;;;;;;;1.42;1.33;;;;;;;35.62;24.89;99397.38;5090442;28;40011;-77
2022/09/01 09:20:35;;;;;;;1.50;1.40;;;;;;;35.25;25.36;99386.69;5090079;28;41650;-82
2022/09/01 09:23:12;;;;;;;3.50;1.50;;;;;;;34.85;25.81;99386.63;5074398;28;43677;-79
2022/09/01 09:25:40;;;;;;;1.40;1.20;;;;;;;34.17;25.87;99383.50;5088966;28;43187;-77
2022/09/01 09:28:08;;;;;;;1.50;1.40;;;;;;;33.51;26.51;99381.69;5090356;28;41711;-82
2022/09/01 09:30:37;;;;;;;1.77;1.67;;;;;;;33.32;26.82;99375.38;5093153;28;41729;-80
2022/09/01 09:33:09;;;;;;;1.63;1.53;;;;;;;33.71;26.72;99374.03;5091545;28;44152;-79
2022/09/01 09:35:39;;;;;;;2.20;1.77;;;;;;;34.04;26.58;99372.72;5089920;28;42262;-80
2022/09/01 09:38:27;;;;;;;1.80;1.30;;;;;;;34.49;25.85;99365.66;5091538;28;42399;-83
2022/09/01 09:41:01;;;;;;;1.77;1.50;;;;;;;34.91;25.73;99368.31;5088694;28;42618;-80
2022/09/01 09:43:32;;;;;;;2.17;1.60;;;;;;;34.77;24.86;99372.38;5092595;28;42755;-77
2022/09/01 09:46:23;;;;;;;1.53;1.40;;;;;;;34.45;25.30;99369.97;5089864;28;42427;-77
2022/09/01 09:49:08;;;;;;;1.97;1.60;;;;;;;34.18;26.02;99355.78;5074536;28;38707;-79
2022/09/01 09:51:37;;;;;;;1.90;1.70;;;;;;;34.27;26.31;99355.47;5088219;28;42690;-80
2022/09/01 09:54:14;;;;;;;3.27;1.90;;;;;;;34.05;26.16;99341.41;5091044;28;44219;-81
2022/09/01 09:56:43;;;;;;;1.60;1.50;;;;;;;34.10;26.72;99344.31;5091374;28;40819;-81
2022/09/01 09:59:28;;;;;;;1.83;1.30;;;;;;;34.10;26.30;99352.56;5074409;28;40991;-80
2022/09/01 10:02:00;;;;;;;1.53;1.43;;;;;;;33.96;26.44;99349.16;5089310;28;42795;-79
2022/09/01 10:04:34;;;;;;;2.50;1.40;;;;;;;33.78;25.56;99362.97;5074075;28;42399;-80
2022/09/01 10:07:22;;;;;;;1.87;1.50;;;;;;;33.67;26.13;99358.22;5091624;28;41316;-81
2022/09/01 10:09:51;;;;;;;1.40;1.30;;;;;;;33.36;25.71;99367.53;5088558;28;41067;-78
2022/09/01 10:12:19;;;;;;;1.43;1.33;;;;;;;32.94;26.17;99312.47;5092522;28;41739;-79
2022/09/01 10:14:52;;;;;;;2.00;1.50;;;;;;;32.87;26.78;99333.69;5074136;28;43339;-77
2022/09/01 10:17:26;;;;;;;2.00;1.30;;;;;;;32.77;26.88;99344.31;5090824;28;42105;-79
2022/09/01 10:19:57;;;;;;;1.30;1.20;;;;;;;32.59;26.80;99341.53;5088428;28;40979;-78
2022/09/01 10:22:26;;;;;;;1.33;1.20;;;;;;;32.39;26.65;99353.50;5089508;28;41589;-79
2022/09/01 10:24:53;;;;;;;2.33;1.40;;;;;;;32.32;26.99;99351.91;5090930;28;43745;-79
2022/09/01 10:27:24;;;;;;;1.57;1.47;;;;;;;32.63;26.92;99346.34;5091687;28;42438;-77
2022/09/01 10:29:57;;;;;;;1.27;1.17;;;;;;;33.26;26.19;99346.09;5088182;28;41842;-79
2022/09/01 10:32:32;;;;;;;0.93;0.93;;;;;;;33.53;24.77;99343.84;5090423;28;42959;-76
2022/09/01 10:35:01;;;;;;;1.53;1.10;;;;;;;34.08;24.88;99347.28;5073379;28;41724;-76
2022/09/01 10:37:31;;;;;;;3.77;1.63;;;;;;;35.17;23.94;99351.25;5090062;28;43231;-77
2022/09/01 10:40:15;;;;;;;1.23;1.13;;;;;;;35.75;22.68;99364.03;5075766;28;40389;-75
2022/09/01 10:42:44;;;;;;;1.53;1.30;;;;;;;35.95;22.29;99358.91;5092360;28;41772;-76
2022/09/01 10:45:30;;;;;;;1.40;1.30;;;;;;;36.61;21.68;99368.31;5076942;28;41844;-76
2022/09/01 10:48:40;;;;;;;1.50;1.40;;;;;;;36.95;21.49;99362.78;5093417;28;43220;-76
2022/09/01 10:51:43;;;;;;;1.00;1.00;;;;;;;36.62;21.69;99375.50;5087639;28;40972;-77
2022/09/01 10:54:50;;;;;;;1.97;1.57;;;;;;;36.02;21.23;99368.94;5072326;28;41161;-75
2022/09/01 10:57:36;;;;;;;1.30;1.20;;;;;;;35.45;22.59;99357.91;5076340;28;41207;-76
2022/09/01 11:00:41;;;;;;;1.60;1.50;;;;;;;35.12;22.61;99353.91;5090526;28;42239;-76
2022/09/01 11:03:48;;;;;;;1.33;1.23;;;;;;;34.92;22.69;99353.47;5093492;28;39877;-76
2022/09/01 11:06:49;;;;;;;1.33;1.23;;;;;;;35.00;23.12;99343.97;5093638;28;40658;-75
2022/09/01 11:09:21;;;;;;;2.40;1.37;;;;;;;35.02;23.50;99334.41;5092848;28;41784;-76
2022/09/01 11:12:00;;;;;;;1.67;1.57;;;;;;;35.24;23.22;99345.59;5091496;28;42213;-75
2022/09/01 11:14:34;;;;;;;1.70;1.20;;;;;;;35.92;22.95;99348.38;5094554;28;39832;-75
2022/09/01 11:17:22;;;;;;;1.60;1.50;;;;;;;36.11;21.69;99361.94;5076739;28;39809;-76
2022/09/01 11:20:09;;;;;;;1.63;1.30;;;;;;;36.03;21.77;99362.34;5093488;28;41236;-76
2022/09/01 11:22:41;;;;;;;2.20;2.00;;;;;;;35.56;22.25;99348.78;5093019;28;40789;-76
2022/09/01 11:25:33;;;;;;;1.40;1.30;;;;;;;35.14;22.72;99346.22;5090102;28;41628;-76
2022/09/01 11:28:04;;;;;;;3.77;1.63;;;;;;;35.61;23.67;99333.16;5092983;28;41846;-75
2022/09/01 11:30:51;;;;;;;1.63;1.40;;;;;;;36.66;21.38;99329.75;5093015;28;43172;-76
2022/09/01 11:33:45;;;;;;;2.43;1.47;;;;;;;37.00;20.47;99349.03;5091156;28;42147;-76
2022/09/01 11:36:25;;;;;;;1.50;1.40;;;;;;;37.76;20.42;99347.22;5090158;28;40172;-75
2022/09/01 11:39:02;;;;;;;1.53;1.43;;;;;;;38.64;19.73;99320.91;5092681;28;42469;-76
2022/09/01 11:41:35;;;;;;;1.13;1.02;;;;;;;39.61;19.24;99340.78;5092167;28;43215;-76
2022/09/01 11:44:13;;;;;;;1.15;1.15;;;;;;;39.11;18.40;99347.78;5092068;28;43358;-76
2022/09/01 11:46:42;;;;;;;2.03;1.30;;;;;;;37.96;19.26;99335.53;5076180;28;39795;-76
2022/09/01 11:49:26;;;;;;;1.57;1.27;;;;;;;36.94;20.00;99323.28;5092371;28;41387;-76
2022/09/01 11:51:54;;;;;;;1.40;1.30;;;;;;;36.22;20.59;99326.06;5074871;28;41797;-77
2022/09/01 11:54:23;;;;;;;1.40;1.30;;;;;;;35.76;21.67;99316.09;5092317;28;42948;-78
2022/09/01 11:56:51;;;;;;;2.07;1.43;;;;;;;35.46;21.59;99321.88;5092894;28;38831;-76
2022/09/01 11:59:32;;;;;;;1.30;1.20;;;;;;;35.85;21.66;99314.63;5092367;28;41762;-76
2022/09/01 12:02:02;;;;;;;1.13;1.13;;;;;;;36.48;21.44;99285.03;5092759;28;41794;-77
2022/09/01 12:04:35;;;;;;;1.40;1.30;;;;;;;37.50;20.82;99295.50;5075346;28;43055;-76
2022/09/01 12:07:06;;;;;;;1.63;1.50;;;;;;;37.24;20.08;99322.84;5092370;28;38666;-76
2022/09/01 12:09:39;;;;;;;1.50;1.40;;;;;;;36.99;20.43;99319.72;5092512;28;42120;-77